Time;durP1;ratioP1;P1;durP2;ratioP2;P2;SDS_P1;SDS_P2;PMS_P1;PMS_P2;Temp;Humidity;BMP_temperature;BMP_pressure;BME280_temperature;BME280_humidity;BME280_pressure;Samples;Min_cycle;Max_cycle;Signal;HPM_P1;HPM_P2
2021/11/03 04:32:24;;;;;;;3.30;3.00;;;;;;;11.87;60.88;97237.03;7514600;22;20241;-84
2021/11/03 04:35:47;;;;;;;3.60;3.00;;;;;;;12.36;59.36;97220.59;6945469;28;20297;-83
2021/11/03 04:39:10;;;;;;;4.10;2.80;;;;;;;12.04;59.62;97221.59;6946339;28;20673;-83
2021/11/03 04:42:34;;;;;;;3.00;2.70;;;;;;;12.37;58.76;97240.31;6949154;28;20239;-85
2021/11/03 04:45:56;;;;;;;6.47;3.20;;;;;;;12.53;58.51;97218.63;6986727;22;20226;-81
2021/11/03 04:49:18;;;;;;;6.57;4.63;;;;;;;12.64;58.45;97233.03;7001780;28;20209;-80
2021/11/03 04:52:40;;;;;;;4.60;3.53;;;;;;;12.67;58.42;97237.91;7002428;28;20200;-79
2021/11/03 04:56:04;;;;;;;4.27;3.20;;;;;;;12.84;57.53;97228.63;7001772;28;20311;-81
2021/11/03 04:59:25;;;;;;;4.03;3.07;;;;;;;12.81;57.01;97222.91;7002197;28;20216;-80
2021/11/03 05:02:47;;;;;;;5.60;3.50;;;;;;;11.50;59.38;97207.09;7001182;28;20300;-80
2021/11/03 05:06:14;;;;;;;3.30;3.00;;;;;;;12.31;58.37;97206.19;6989436;28;20360;-79
2021/11/03 05:09:36;;;;;;;3.23;2.53;;;;;;;12.27;57.95;97191.59;6995285;28;20197;-80
2021/11/03 05:12:57;;;;;;;3.07;2.70;;;;;;;12.12;59.00;97200.34;6984117;28;20197;-80
2021/11/03 05:16:21;;;;;;;3.67;3.23;;;;;;;11.68;59.26;97192.53;6979387;28;20273;-83
2021/11/03 05:19:43;;;;;;;3.27;2.87;;;;;;;12.19;58.98;97200.13;6995972;28;20593;-79
2021/11/03 05:23:06;;;;;;;3.10;2.80;;;;;;;12.56;57.98;97179.44;6987971;28;20301;-80
2021/11/03 05:26:28;;;;;;;3.20;2.50;;;;;;;12.55;57.78;97189.44;6969817;28;20261;-80
2021/11/03 05:29:49;;;;;;;3.10;2.80;;;;;;;11.84;59.54;97173.56;6977079;28;20315;-80
2021/11/03 05:33:11;;;;;;;3.23;2.80;;;;;;;11.24;59.58;97139.53;6988375;28;20221;-80
2021/11/03 05:36:33;;;;;;;4.00;2.60;;;;;;;11.57;60.03;97155.63;6997930;28;20696;-80
2021/11/03 05:39:56;;;;;;;3.07;2.53;;;;;;;12.08;58.35;97160.56;7001139;28;20821;-80
2021/11/03 05:43:18;;;;;;;3.93;2.53;;;;;;;12.29;57.36;97176.75;6978893;28;20244;-81
2021/11/03 05:46:42;;;;;;;3.40;3.10;;;;;;;11.77;58.98;97172.09;6971803;28;20297;-79
2021/11/03 05:50:04;;;;;;;3.67;2.80;;;;;;;11.60;60.20;97169.47;6972561;28;20252;-80
2021/11/03 05:53:26;;;;;;;3.00;2.80;;;;;;;11.87;59.00;97153.34;6971934;28;20207;-81
2021/11/03 05:56:49;;;;;;;2.83;2.63;;;;;;;12.35;57.98;97145.19;6971623;28;20263;-79
2021/11/03 06:00:15;;;;;;;3.03;2.57;;;;;;;12.63;56.23;97125.97;6976969;28;20201;-79
2021/11/03 06:03:37;;;;;;;2.57;2.43;;;;;;;12.55;55.89;97113.75;6989745;28;20713;-79
2021/11/03 06:06:59;;;;;;;2.67;2.50;;;;;;;12.30;55.27;97127.03;6982097;28;20244;-80
2021/11/03 06:10:26;;;;;;;2.87;2.57;;;;;;;12.67;55.45;97127.06;6984585;28;20205;-79
2021/11/03 06:13:50;;;;;;;2.70;2.50;;;;;;;12.61;55.72;97103.75;6975695;28;20201;-79
2021/11/03 06:17:11;;;;;;;2.80;2.60;;;;;;;12.68;55.97;97123.31;6975202;28;20221;-79
2021/11/03 06:20:33;;;;;;;2.77;2.50;;;;;;;12.15;55.82;97117.97;6998782;28;20225;-80
2021/11/03 06:23:55;;;;;;;2.77;2.57;;;;;;;12.21;56.57;97115.06;6984843;28;20256;-79
2021/11/03 06:27:16;;;;;;;3.00;2.47;;;;;;;12.35;56.23;97115.47;6975775;28;20725;-79
2021/11/03 06:30:39;;;;;;;4.50;2.30;;;;;;;12.46;55.57;97109.88;6971249;28;20245;-81
2021/11/03 06:34:02;;;;;;;2.80;2.60;;;;;;;12.60;54.74;97100.25;6980061;28;20569;-80
2021/11/03 06:37:24;;;;;;;3.57;2.40;;;;;;;12.96;53.79;97094.06;6970878;28;20214;-80
2021/11/03 06:40:46;;;;;;;2.50;2.30;;;;;;;12.40;53.98;97073.06;6972110;28;20203;-79
2021/11/03 06:44:08;;;;;;;2.47;2.30;;;;;;;12.40;55.10;97107.41;6978407;28;20272;-79
2021/11/03 06:47:31;;;;;;;2.50;2.30;;;;;;;12.09;55.85;97110.91;6982954;28;20222;-79
2021/11/03 06:50:52;;;;;;;3.03;2.03;;;;;;;12.70;54.58;97103.03;6983570;28;20233;-79
2021/11/03 06:54:14;;;;;;;3.10;2.27;;;;;;;12.88;53.46;97107.22;6977928;28;20202;-79
2021/11/03 06:57:36;;;;;;;2.40;2.20;;;;;;;12.20;54.41;97102.63;6970020;28;20230;-80
2021/11/03 07:00:59;;;;;;;2.30;2.10;;;;;;;12.89;53.12;97101.56;6970029;28;20206;-79
2021/11/03 07:04:22;;;;;;;2.00;1.87;;;;;;;12.75;51.55;97118.50;6968243;28;20202;-79
2021/11/03 07:07:43;;;;;;;2.23;2.10;;;;;;;13.12;52.27;97122.00;6969438;28;20229;-79
2021/11/03 07:11:05;;;;;;;2.10;2.00;;;;;;;13.35;51.59;97099.94;6969058;28;20214;-81
2021/11/03 07:14:27;;;;;;;6.43;2.60;;;;;;;13.37;53.48;97141.91;6976993;28;20200;-79
2021/11/03 07:17:48;;;;;;;2.83;2.57;;;;;;;13.69;52.36;97141.78;6995796;28;20234;-80
2021/11/03 07:21:11;;;;;;;2.23;2.03;;;;;;;12.50;55.09;97134.50;6997108;28;20241;-80
2021/11/03 07:24:33;;;;;;;1.97;1.87;;;;;;;12.84;53.84;97135.84;6996662;28;20209;-80
2021/11/03 07:27:57;;;;;;;2.50;2.30;;;;;;;12.75;53.72;97116.56;6997315;28;20260;-80
2021/11/03 07:31:19;;;;;;;2.47;1.90;;;;;;;12.44;53.54;97127.41;6995741;28;20213;-79
2021/11/03 07:34:41;;;;;;;2.53;2.33;;;;;;;12.14;55.07;97100.13;6995932;28;20296;-80
2021/11/03 07:38:05;;;;;;;2.30;1.93;;;;;;;12.29;53.14;97094.88;6981378;28;20269;-79
2021/11/03 07:41:27;;;;;;;1.97;1.77;;;;;;;12.22;52.63;97107.78;6980847;28;20193;-79
2021/11/03 07:44:49;;;;;;;2.00;1.90;;;;;;;13.17;51.37;97120.13;6981407;28;20556;-80
2021/11/03 07:48:11;;;;;;;1.80;1.70;;;;;;;12.79;50.97;97139.34;6980842;28;20735;-80
2021/11/03 07:51:33;;;;;;;2.63;1.90;;;;;;;13.50;51.10;97133.31;6989169;28;20261;-79
2021/11/03 07:54:56;;;;;;;1.90;1.80;;;;;;;13.43;51.32;97126.50;6972363;28;20237;-79
2021/11/03 07:58:19;;;;;;;1.90;1.80;;;;;;;13.05;52.39;97121.44;6969016;28;20234;-79
2021/11/03 08:01:41;;;;;;;1.90;1.80;;;;;;;12.75;51.55;97086.03;6974715;28;20262;-79
2021/11/03 08:05:04;;;;;;;1.80;1.70;;;;;;;13.36;50.53;97115.09;6981183;28;20258;-80
2021/11/03 08:08:32;;;;;;;1.80;1.70;;;;;;;13.50;49.40;97086.44;6982227;28;20206;-80
2021/11/03 08:11:57;;;;;;;2.17;1.73;;;;;;;14.14;48.68;97101.25;6984615;28;20196;-80
2021/11/03 08:15:19;;;;;;;1.80;1.70;;;;;;;13.97;47.43;97096.09;6993746;28;20246;-80
2021/11/03 08:18:43;;;;;;;2.43;1.87;;;;;;;13.23;49.15;97072.28;7000893;28;20558;-80
2021/11/03 08:22:05;;;;;;;1.90;1.80;;;;;;;12.18;51.65;97044.50;7001672;28;20232;-80
2021/11/03 08:25:27;;;;;;;1.70;1.60;;;;;;;13.73;49.15;97057.03;7001235;28;20226;-80
2021/11/03 08:28:50;;;;;;;3.00;2.43;;;;;;;14.10;48.59;97043.28;7001326;28;20235;-79
2021/11/03 08:32:14;;;;;;;2.93;1.90;;;;;;;14.03;48.23;97040.81;7001420;28;20205;-80
2021/11/03 08:35:37;;;;;;;2.20;2.00;;;;;;;13.64;49.24;97036.94;7000496;28;20232;-80
2021/11/03 08:38:59;;;;;;;1.70;1.60;;;;;;;13.47;49.34;97044.50;7001024;28;20206;-80
2021/11/03 08:42:22;;;;;;;2.20;1.80;;;;;;;13.35;50.14;97064.75;7001236;28;20324;-80
2021/11/03 08:45:45;;;;;;;1.90;1.80;;;;;;;13.75;49.01;97078.44;6991588;28;20260;-80
2021/11/03 08:49:07;;;;;;;2.00;1.90;;;;;;;13.82;48.66;97065.44;6987486;28;20249;-80
2021/11/03 08:52:28;;;;;;;1.90;1.73;;;;;;;13.69;48.69;97057.84;6985824;28;20561;-79
2021/11/03 08:55:51;;;;;;;1.77;1.67;;;;;;;13.66;48.87;97028.56;6985016;28;20360;-83
2021/11/03 08:59:13;;;;;;;1.80;1.70;;;;;;;14.21;47.70;97063.94;7006580;28;20197;-80
2021/11/03 09:02:36;;;;;;;2.10;2.00;;;;;;;14.14;48.03;97057.91;6999642;28;20245;-79
2021/11/03 09:06:00;;;;;;;1.80;1.70;;;;;;;13.48;49.29;97054.25;6985702;28;20708;-79
2021/11/03 09:09:23;;;;;;;3.30;1.70;;;;;;;13.51;49.35;97071.88;6985981;28;20201;-79
2021/11/03 09:12:44;;;;;;;1.93;1.80;;;;;;;13.15;50.14;97070.09;6986129;28;20205;-79
2021/11/03 09:16:06;;;;;;;2.67;2.07;;;;;;;13.90;48.54;97063.03;6993940;28;20248;-79
2021/11/03 09:19:29;;;;;;;1.83;1.70;;;;;;;13.41;49.14;97067.22;6999998;28;20565;-79
2021/11/03 09:22:51;;;;;;;4.20;2.07;;;;;;;13.32;50.08;97059.84;6999386;28;20268;-79
2021/11/03 09:26:13;;;;;;;2.07;1.97;;;;;;;13.07;49.87;97059.75;6999248;28;20241;-79
2021/11/03 09:29:35;;;;;;;2.13;1.97;;;;;;;13.34;49.67;97055.00;6999285;28;20210;-79
2021/11/03 09:33:02;;;;;;;2.30;2.10;;;;;;;13.86;49.45;97051.09;7000017;28;20206;-79
2021/11/03 09:36:25;;;;;;;2.10;2.00;;;;;;;14.87;47.12;97062.81;6998515;28;20230;-79
2021/11/03 09:39:48;;;;;;;2.10;2.00;;;;;;;13.91;48.43;97063.81;6999377;28;20572;-79
2021/11/03 09:43:24;;;;;;;1.93;1.83;;;;;;;13.59;49.79;97063.22;6999795;28;20225;-79
2021/11/03 09:46:48;;;;;;;2.13;2.00;;;;;;;13.69;49.71;97055.13;6998548;28;20251;-79
2021/11/03 09:50:16;;;;;;;2.63;2.27;;;;;;;13.86;48.49;97051.09;6999060;28;20203;-79
2021/11/03 09:53:45;;;;;;;2.27;2.07;;;;;;;14.09;48.62;97057.94;6999425;28;20546;-79
2021/11/03 09:57:17;;;;;;;2.20;2.00;;;;;;;14.09;48.32;97064.13;6998166;28;20224;-79
2021/11/03 10:00:41;;;;;;;3.00;2.00;;;;;;;13.68;49.09;97062.44;6999307;28;20189;-79
2021/11/03 10:04:16;;;;;;;2.30;2.13;;;;;;;13.91;48.76;97059.22;6998079;28;20225;-79
2021/11/03 10:07:43;;;;;;;2.43;1.83;;;;;;;13.77;49.59;97060.84;6999091;28;20229;-80
2021/11/03 10:11:15;;;;;;;2.57;2.10;;;;;;;14.83;47.48;97064.44;6998554;28;20194;-79
2021/11/03 10:14:36;;;;;;;2.40;2.20;;;;;;;15.33;46.03;97067.84;6998175;28;20240;-80
2021/11/03 10:18:11;;;;;;;2.97;2.10;;;;;;;14.64;46.68;97079.66;6978284;28;20230;-79
2021/11/03 10:21:42;;;;;;;2.67;2.10;;;;;;;15.13;46.93;97075.22;6974226;28;20214;-79
2021/11/03 10:25:18;;;;;;;2.73;1.90;;;;;;;14.91;46.01;97066.56;6997136;28;20296;-79
2021/11/03 10:28:43;;;;;;;1.90;1.80;;;;;;;14.70;46.43;97073.13;6997645;28;20186;-79
2021/11/03 10:32:19;;;;;;;2.87;1.97;;;;;;;15.54;45.64;97072.13;6998400;28;20562;-80
2021/11/03 10:35:43;;;;;;;2.83;1.90;;;;;;;15.78;44.94;97081.25;6977955;28;20222;-79
2021/11/03 10:39:13;;;;;;;2.00;1.80;;;;;;;15.89;43.89;97079.28;6969849;28;20213;-80
2021/11/03 10:42:37;;;;;;;2.40;2.20;;;;;;;15.97;45.19;97093.09;6969779;28;20269;-78
2021/11/03 10:46:05;;;;;;;1.90;1.80;;;;;;;15.43;44.87;97084.13;6971020;28;20235;-81
2021/11/03 10:49:38;;;;;;;1.90;1.80;;;;;;;15.93;44.10;97092.03;6973520;28;20206;-81
2021/11/03 10:53:12;;;;;;;1.90;1.80;;;;;;;16.00;43.35;97080.84;6978683;28;20335;-81
2021/11/03 10:56:38;;;;;;;2.00;1.80;;;;;;;15.41;44.66;97090.91;6986503;28;20232;-81
2021/11/03 11:00:12;;;;;;;1.83;1.73;;;;;;;15.06;45.03;97096.41;6986119;28;20207;-81
2021/11/03 11:03:37;;;;;;;1.87;1.77;;;;;;;15.29;44.01;97085.75;6990220;28;20222;-81
2021/11/03 11:07:01;;;;;;;3.67;3.03;;;;;;;15.26;44.39;97080.88;7000405;28;20233;-81
2021/11/03 11:10:31;;;;;;;4.87;3.07;;;;;;;15.60;45.09;97100.06;6981707;28;20668;-82
2021/11/03 11:14:00;;;;;;;4.93;2.90;;;;;;;15.95;44.85;97116.22;6999551;28;20190;-86
2021/11/03 11:17:25;;;;;;;4.37;3.10;;;;;;;15.96;44.43;97115.13;6997501;28;20571;-84
2021/11/03 11:20:50;;;;;;;1.97;1.70;;;;;;;16.32;43.62;97097.50;6998893;28;20207;-82
2021/11/03 11:24:15;;;;;;;2.60;1.77;;;;;;;16.30;44.64;97100.50;6999731;28;20226;-82
2021/11/03 11:27:41;;;;;;;2.50;2.27;;;;;;;16.28;45.19;97093.72;6999087;28;20717;-83
2021/11/03 11:31:10;;;;;;;1.83;1.70;;;;;;;15.90;45.31;97089.06;6998925;28;20251;-82
2021/11/03 11:34:51;;;;;;;2.80;2.10;;;;;;;15.99;45.55;97107.22;6998348;28;20251;-84
2021/11/03 11:38:22;;;;;;;2.30;2.10;;;;;;;16.13;45.69;97104.69;7000102;28;20724;-82
2021/11/03 11:41:54;;;;;;;3.40;2.30;;;;;;;16.09;45.81;97103.63;6999804;28;20189;-80
2021/11/03 11:45:20;;;;;;;4.40;2.43;;;;;;;15.73;46.65;97096.75;6991903;28;20217;-82
2021/11/03 11:48:43;;;;;;;3.70;2.60;;;;;;;15.97;47.11;97103.16;6983396;28;20563;-81
2021/11/03 11:52:10;;;;;;;4.97;2.63;;;;;;;15.85;47.40;97092.63;6990477;28;20228;-81
2021/11/03 11:55:35;;;;;;;2.17;2.03;;;;;;;16.03;45.90;97097.41;6988241;28;20237;-81
2021/11/03 11:59:05;;;;;;;3.13;2.73;;;;;;;16.16;45.13;97098.69;6991319;28;20559;-82
2021/11/03 12:02:29;;;;;;;5.23;2.67;;;;;;;15.86;45.38;97091.53;6993588;28;20209;-81
2021/11/03 12:06:07;;;;;;;3.13;2.43;;;;;;;16.17;45.13;97087.53;6990843;28;20218;-82
2021/11/03 12:09:33;;;;;;;5.10;3.50;;;;;;;16.05;45.08;97094.41;6990841;28;20209;-81
2021/11/03 12:13:24;;;;;;;2.80;2.60;;;;;;;16.02;45.93;97094.97;6992018;28;20247;-81
2021/11/03 12:17:16;;;;;;;3.30;3.00;;;;;;;15.98;46.51;97088.47;6996596;28;20252;-81
2021/11/03 12:20:45;;;;;;;5.03;3.20;;;;;;;15.32;47.87;97073.53;6992361;28;20281;-82
2021/11/03 12:24:29;;;;;;;3.93;3.33;;;;;;;15.40;48.17;97054.00;6991084;28;20206;-82
2021/11/03 12:27:52;;;;;;;4.93;3.33;;;;;;;16.15;47.21;97099.81;6990518;28;20625;-82
2021/11/03 12:31:27;;;;;;;3.97;3.20;;;;;;;16.02;46.83;97090.34;6990352;28;20567;-82
2021/11/03 12:34:49;;;;;;;3.80;3.27;;;;;;;16.03;46.38;97108.28;6987949;28;20192;-82
2021/11/03 12:38:43;;;;;;;4.53;3.10;;;;;;;16.05;46.34;97111.53;6998253;28;20230;-82
2021/11/03 12:42:25;;;;;;;4.33;3.00;;;;;;;16.22;46.51;97109.25;7006632;28;20215;-81
2021/11/03 12:45:55;;;;;;;4.13;2.90;;;;;;;15.46;47.74;97061.81;7005946;28;20237;-82
2021/11/03 12:49:24;;;;;;;3.20;2.90;;;;;;;15.58;48.15;97092.19;7006611;28;20201;-82
2021/11/03 12:52:48;;;;;;;5.77;3.00;;;;;;;16.02;47.71;97112.09;6994715;28;20640;-82
2021/11/03 12:56:13;;;;;;;3.27;2.80;;;;;;;16.08;47.23;97108.25;6990636;28;20223;-81
2021/11/03 12:59:37;;;;;;;3.47;2.77;;;;;;;16.12;47.73;97108.50;6991782;28;20213;-82
2021/11/03 13:03:00;;;;;;;5.13;3.53;;;;;;;15.98;47.72;97107.50;6980138;28;20218;-82
2021/11/03 13:06:26;;;;;;;6.13;3.90;;;;;;;15.83;47.77;97062.19;6978173;28;20236;-81
2021/11/03 13:09:55;;;;;;;3.40;2.90;;;;;;;15.91;48.22;97115.13;6978857;28;20214;-82
2021/11/03 13:13:21;;;;;;;5.10;3.63;;;;;;;15.88;48.71;97113.00;6979327;28;20679;-82
2021/11/03 13:16:47;;;;;;;12.40;6.87;;;;;;;15.91;49.26;97101.53;6978239;28;20290;-81
2021/11/03 13:20:23;;;;;;;15.50;8.57;;;;;;;16.22;49.27;97097.56;6985820;28;20192;-81
2021/11/03 13:23:47;;;;;;;20.63;11.73;;;;;;;16.15;49.21;97102.53;6988053;28;20225;-82
2021/11/03 13:27:16;;;;;;;10.93;7.77;;;;;;;15.92;49.87;97109.44;6974489;28;20732;-82
2021/11/03 13:30:39;;;;;;;11.80;7.80;;;;;;;15.63;50.23;97105.75;6975376;28;20203;-82
2021/11/03 13:34:11;;;;;;;8.10;5.40;;;;;;;16.02;50.30;97116.72;6974097;28;20695;-82
2021/11/03 13:37:35;;;;;;;4.70;4.10;;;;;;;15.66;50.97;97110.66;6975171;28;20230;-82
2021/11/03 13:40:59;;;;;;;4.77;3.60;;;;;;;15.83;51.29;97126.59;6985024;28;20646;-82
2021/11/03 13:44:23;;;;;;;3.40;3.10;;;;;;;15.51;51.97;97116.13;6986849;28;20255;-82
2021/11/03 13:47:57;;;;;;;3.90;3.50;;;;;;;15.73;51.95;97132.88;6987403;28;20233;-81
2021/11/03 13:51:23;;;;;;;6.07;3.53;;;;;;;15.46;53.66;97143.28;6979507;28;20198;-82
2021/11/03 13:54:50;;;;;;;3.97;3.33;;;;;;;15.41;52.40;97145.22;6974209;28;20262;-82
2021/11/03 13:58:36;;;;;;;4.13;3.17;;;;;;;15.45;51.94;97127.31;6985310;28;20229;-82
2021/11/03 14:02:01;;;;;;;7.43;3.20;;;;;;;15.53;52.34;97134.88;6987798;28;20367;-82
2021/11/03 14:05:33;;;;;;;4.73;2.93;;;;;;;15.64;52.10;97129.09;6985250;28;20238;-82
2021/11/03 14:08:55;;;;;;;3.33;3.03;;;;;;;15.21;54.06;97150.69;6981153;28;20386;-82
2021/11/03 14:12:17;;;;;;;3.37;2.83;;;;;;;15.35;54.00;97132.75;6987325;28;20245;-82
2021/11/03 14:15:40;;;;;;;4.07;2.97;;;;;;;15.03;54.31;97095.06;6986330;28;20218;-82
2021/11/03 14:19:02;;;;;;;6.27;3.53;;;;;;;15.38;54.00;97160.16;6998224;28;20209;-82
2021/11/03 14:22:25;;;;;;;4.63;3.10;;;;;;;15.15;54.97;97157.22;6975632;28;20206;-82
2021/11/03 14:25:48;;;;;;;3.60;3.30;;;;;;;15.05;55.76;97121.94;6971313;28;20237;-82
2021/11/03 14:29:10;;;;;;;4.20;3.80;;;;;;;15.10;55.86;97143.63;6972410;28;20677;-85
2021/11/03 14:32:34;;;;;;;5.10;3.50;;;;;;;15.20;56.28;97127.31;6974326;28;20651;-83
2021/11/03 14:35:57;;;;;;;4.27;3.87;;;;;;;14.86;55.97;97075.53;6998606;28;20225;-85
2021/11/03 14:39:20;;;;;;;9.23;4.20;;;;;;;15.19;56.38;97123.81;7000360;28;20202;-83
2021/11/03 14:42:42;;;;;;;4.67;4.27;;;;;;;15.18;56.41;97130.31;7000335;28;20685;-83
2021/11/03 14:46:18;;;;;;;7.33;4.43;;;;;;;15.27;56.08;97136.00;7000320;28;20249;-86
2021/11/03 14:49:43;;;;;;;6.40;4.30;;;;;;;15.43;55.30;97135.72;6997115;28;20194;-81
2021/11/03 14:53:07;;;;;;;4.90;4.33;;;;;;;15.31;55.25;97124.31;7012016;28;20214;-81
2021/11/03 14:56:29;;;;;;;5.87;4.40;;;;;;;15.36;55.20;97139.81;7015773;28;20230;-81
2021/11/03 14:59:51;;;;;;;6.70;4.30;;;;;;;15.46;55.83;97154.16;7015146;28;20198;-82
2021/11/03 15:03:16;;;;;;;4.73;3.53;;;;;;;15.33;56.25;97157.47;7002870;28;20213;-81
2021/11/03 15:06:39;;;;;;;4.17;3.60;;;;;;;15.44;55.93;97166.38;6979907;28;20360;-81
2021/11/03 15:10:00;;;;;;;3.80;3.37;;;;;;;15.56;55.14;97161.47;6971595;28;20207;-81
2021/11/03 15:13:25;;;;;;;6.13;3.30;;;;;;;15.48;55.22;97183.75;6983957;28;20284;-84
2021/11/03 15:16:48;;;;;;;3.73;3.30;;;;;;;15.48;55.35;97164.75;6999296;28;20249;-81
2021/11/03 15:20:21;;;;;;;5.50;3.67;;;;;;;15.34;55.99;97175.38;6998592;28;20198;-81
2021/11/03 15:23:45;;;;;;;5.13;4.20;;;;;;;14.87;57.45;97168.63;6998542;28;20811;-81
2021/11/03 15:27:06;;;;;;;5.00;3.43;;;;;;;15.15;56.99;97176.22;6996491;28;20220;-81
2021/11/03 15:30:28;;;;;;;4.63;3.40;;;;;;;15.03;57.48;97181.06;6972096;28;20209;-81
2021/11/03 15:33:51;;;;;;;4.40;3.43;;;;;;;14.74;58.36;97183.53;6973438;28;20201;-81
2021/11/03 15:37:24;;;;;;;7.83;4.20;;;;;;;14.66;58.85;97194.94;6969975;28;20227;-81
2021/11/03 15:40:50;;;;;;;4.40;3.60;;;;;;;15.01;58.28;97194.94;6971527;28;20235;-81
2021/11/03 15:44:12;;;;;;;5.20;4.20;;;;;;;14.88;57.83;97189.25;6970250;28;20694;-80
2021/11/03 15:47:34;;;;;;;4.93;4.43;;;;;;;14.92;58.06;97193.84;6970840;28;20237;-80
2021/11/03 15:50:57;;;;;;;4.80;4.23;;;;;;;14.83;58.29;97181.91;6971384;28;20698;-81
2021/11/03 15:54:20;;;;;;;8.90;6.93;;;;;;;14.95;58.10;97178.91;6970655;28;20245;-80
2021/11/03 15:57:43;;;;;;;5.53;4.90;;;;;;;14.74;58.21;97161.81;6971375;28;20237;-81
2021/11/03 16:01:13;;;;;;;6.27;4.33;;;;;;;14.68;58.80;97172.97;6975766;28;20205;-82
2021/11/03 16:04:39;;;;;;;7.37;5.00;;;;;;;14.70;58.61;97157.22;6992302;28;20221;-81
2021/11/03 16:08:03;;;;;;;7.57;4.17;;;;;;;15.00;58.28;97190.59;6997720;28;20607;-81
2021/11/03 16:11:24;;;;;;;5.17;3.97;;;;;;;14.84;58.19;97190.84;6995783;28;20242;-82
2021/11/03 16:14:48;;;;;;;10.93;7.67;;;;;;;14.40;59.53;97176.19;6968992;28;20209;-83
2021/11/03 16:18:11;;;;;;;14.47;7.10;;;;;;;14.47;60.26;97190.28;6973284;28;20216;-82
2021/11/03 16:21:34;;;;;;;6.93;5.27;;;;;;;14.54;60.12;97183.53;7001193;28;20193;-82
2021/11/03 16:24:56;;;;;;;6.33;5.23;;;;;;;14.53;59.82;97181.91;6986070;28;20222;-83
2021/11/03 16:28:20;;;;;;;6.20;5.30;;;;;;;14.55;59.69;97190.56;6981751;28;20225;-82
2021/11/03 16:31:43;;;;;;;8.80;6.20;;;;;;;14.62;59.27;97161.28;6980050;28;20203;-84
2021/11/03 16:35:05;;;;;;;6.47;5.53;;;;;;;14.83;58.75;97181.09;6978977;28;20577;-83
2021/11/03 16:38:29;;;;;;;6.20;5.50;;;;;;;14.13;59.70;97187.19;6982206;28;20202;-83
2021/11/03 16:42:31;;;;;;;5.70;4.67;;;;;;;14.37;59.91;97173.97;6985258;28;20658;-83
2021/11/03 16:45:54;;;;;;;10.87;7.60;;;;;;;14.31;59.93;97183.19;6986333;28;20731;-83
2021/11/03 16:49:18;;;;;;;12.73;9.80;;;;;;;14.58;59.44;97178.38;6987068;28;20208;-83
2021/11/03 16:52:40;;;;;;;14.20;10.47;;;;;;;14.56;59.36;97197.63;6987901;28;20229;-82
2021/11/03 16:56:04;;;;;;;9.53;6.83;;;;;;;14.38;59.41;97183.75;6988208;28;20226;-82
2021/11/03 16:59:25;;;;;;;7.40;5.90;;;;;;;14.10;60.38;97206.69;6986383;28;20586;-83
2021/11/03 17:02:48;;;;;;;8.17;6.30;;;;;;;14.21;60.57;97207.59;6974695;28;20199;-82
2021/11/03 17:06:23;;;;;;;6.60;5.93;;;;;;;13.67;61.23;97203.50;6974616;28;20253;-83
2021/11/03 17:09:47;;;;;;;5.43;4.93;;;;;;;13.28;62.99;97208.41;6973954;28;20198;-83
2021/11/03 17:13:10;;;;;;;3.73;3.00;;;;;;;13.62;61.89;97217.03;6972495;28;20206;-81
2021/11/03 17:16:35;;;;;;;5.53;3.83;;;;;;;14.11;60.78;97215.63;6974302;28;20218;-83
2021/11/03 17:19:57;;;;;;;4.10;3.53;;;;;;;13.71;60.78;97175.66;6973343;28;20218;-84
2021/11/03 17:23:23;;;;;;;5.87;3.57;;;;;;;13.92;60.91;97218.00;6972207;28;20201;-83
2021/11/03 17:26:49;;;;;;;5.10;4.43;;;;;;;13.77;61.44;97220.66;6980485;28;20226;-84
2021/11/03 17:30:16;;;;;;;7.33;6.07;;;;;;;13.55;62.14;97202.91;6979498;28;20655;-83
2021/11/03 17:33:38;;;;;;;10.07;7.97;;;;;;;13.67;62.41;97198.91;6974256;28;20210;-84
2021/11/03 17:37:00;;;;;;;10.70;8.77;;;;;;;13.97;61.39;97203.63;6973558;28;20230;-84
2021/11/03 17:40:25;;;;;;;19.90;14.60;;;;;;;14.23;60.68;97195.34;6991833;28;20205;-84
2021/11/03 17:43:47;;;;;;;140.17;72.13;;;;;;;14.23;60.01;97156.63;7001919;28;20212;-82
2021/11/03 17:47:12;;;;;;;10.27;8.80;;;;;;;14.37;59.52;97185.66;6982387;28;20226;-81
2021/11/03 17:50:36;;;;;;;9.03;6.57;;;;;;;14.24;59.61;97182.63;6972526;28;20202;-83
2021/11/03 17:53:58;;;;;;;7.57;5.67;;;;;;;14.34;59.68;97201.66;6985291;28;20212;-84
2021/11/03 17:57:23;;;;;;;7.27;5.37;;;;;;;14.20;59.28;97198.63;6977037;28;20586;-82
2021/11/03 18:00:45;;;;;;;6.60;5.97;;;;;;;13.83;60.11;97188.97;6973385;28;20564;-82
2021/11/03 18:04:07;;;;;;;6.70;6.00;;;;;;;13.88;60.58;97191.69;6971334;28;20360;-84
2021/11/03 18:07:30;;;;;;;13.53;11.53;;;;;;;13.93;60.73;97187.09;6987525;28;20221;-83
2021/11/03 18:10:52;;;;;;;9.70;8.27;;;;;;;13.95;59.82;97201.22;6997693;28;20201;-82
2021/11/03 18:14:20;;;;;;;11.03;9.93;;;;;;;14.12;59.92;97241.66;6999002;28;20209;-83
2021/11/03 18:17:41;;;;;;;17.63;14.43;;;;;;;13.91;59.47;97261.59;6994349;28;20222;-82
2021/11/03 18:21:04;;;;;;;10.37;9.20;;;;;;;13.63;60.84;97260.09;6996046;28;20202;-83
2021/11/03 18:24:26;;;;;;;7.63;6.87;;;;;;;13.68;60.22;97253.91;6971848;28;20231;-83
2021/11/03 18:27:48;;;;;;;8.60;7.30;;;;;;;13.79;60.60;97242.84;6976414;28;20226;-84
2021/11/03 18:31:16;;;;;;;8.33;6.80;;;;;;;13.58;61.04;97216.72;6978766;28;20199;-83
2021/11/03 18:34:42;;;;;;;6.87;6.17;;;;;;;13.19;61.68;97228.13;6999356;28;20209;-84
2021/11/03 18:38:04;;;;;;;7.47;6.67;;;;;;;13.00;62.57;97203.38;7000763;28;20239;-84
2021/11/03 18:41:29;;;;;;;7.53;6.40;;;;;;;13.55;61.65;97205.59;6972551;28;20236;-83
2021/11/03 18:44:52;;;;;;;5.97;5.40;;;;;;;13.80;60.55;97201.13;6983297;28;20206;-83
2021/11/03 18:48:15;;;;;;;6.50;5.80;;;;;;;13.90;60.15;97211.19;6999221;28;20229;-83
2021/11/03 18:51:43;;;;;;;7.27;6.20;;;;;;;13.88;59.65;97226.91;6996622;28;20306;-83
2021/11/03 18:55:13;;;;;;;8.03;7.27;;;;;;;13.73;59.94;97243.06;6982437;28;20204;-84
2021/11/03 18:58:35;;;;;;;6.57;5.83;;;;;;;13.68;59.38;97281.78;6984783;28;20202;-83
2021/11/03 19:01:57;;;;;;;5.87;5.10;;;;;;;13.48;60.49;97284.38;6987665;28;20205;-82
2021/11/03 19:05:21;;;;;;;8.57;6.37;;;;;;;13.46;60.35;97293.84;6973279;28;20702;-83
2021/11/03 19:08:42;;;;;;;7.13;5.60;;;;;;;13.58;60.47;97273.59;6971332;28;20205;-83
2021/11/03 19:12:06;;;;;;;7.53;4.87;;;;;;;13.46;60.81;97266.75;6971850;28;20233;-82
2021/11/03 19:15:33;;;;;;;5.97;5.10;;;;;;;13.55;60.94;97274.13;6970772;28;20279;-83
2021/11/03 19:18:54;;;;;;;7.83;5.87;;;;;;;13.70;60.44;97289.66;6971573;28;20201;-83
2021/11/03 19:22:27;;;;;;;5.60;5.00;;;;;;;13.84;59.63;97307.06;6974144;28;20677;-83
2021/11/03 19:25:51;;;;;;;8.13;5.00;;;;;;;13.86;59.47;97313.84;6998165;28;20236;-83
2021/11/03 19:29:12;;;;;;;7.83;7.07;;;;;;;13.37;60.24;97312.44;6981186;28;20202;-81
2021/11/03 19:32:34;;;;;;;7.20;6.50;;;;;;;13.51;60.52;97288.47;6972782;28;20210;-83
2021/11/03 19:35:59;;;;;;;8.27;6.60;;;;;;;13.65;60.79;97309.41;6972626;28;20226;-82
2021/11/03 19:39:26;;;;;;;6.13;5.50;;;;;;;13.69;60.55;97302.38;6989334;28;20209;-83
2021/11/03 19:42:48;;;;;;;8.47;6.83;;;;;;;13.70;60.40;97298.59;6976282;28;20351;-84
2021/11/03 19:46:10;;;;;;;7.20;6.50;;;;;;;13.50;60.85;97290.34;6970914;28;20234;-83
2021/11/03 19:49:32;;;;;;;6.97;6.27;;;;;;;13.65;60.82;97295.88;6974261;28;20221;-82
2021/11/03 19:52:54;;;;;;;7.30;6.27;;;;;;;13.54;60.58;97287.91;6971682;28;20206;-81
2021/11/03 19:56:21;;;;;;;7.43;6.63;;;;;;;13.48;60.96;97280.84;6995749;28;20232;-81
2021/11/03 19:59:43;;;;;;;8.50;6.80;;;;;;;13.53;60.38;97289.00;6999751;28;20185;-83
2021/11/03 20:03:06;;;;;;;9.23;7.47;;;;;;;13.61;60.60;97283.09;6997746;28;20205;-83
2021/11/03 20:06:29;;;;;;;10.33;6.67;;;;;;;13.59;60.47;97275.25;6997460;28;21321;-83
2021/11/03 20:09:51;;;;;;;8.60;6.20;;;;;;;13.40;60.54;97284.03;6990538;28;20244;-82
2021/11/03 20:13:25;;;;;;;6.20;5.57;;;;;;;13.45;60.59;97292.19;7014988;28;20203;-83
2021/11/03 20:16:51;;;;;;;9.00;6.90;;;;;;;13.38;60.72;97287.00;7031665;28;20338;-82
2021/11/03 20:20:18;;;;;;;7.20;6.50;;;;;;;13.35;60.54;97265.88;7031962;28;20625;-83
2021/11/03 20:23:40;;;;;;;7.33;6.60;;;;;;;13.31;60.79;97266.63;7002030;28;20202;-82
2021/11/03 20:27:05;;;;;;;7.10;6.30;;;;;;;13.39;60.79;97271.59;6977056;28;20226;-83
2021/11/03 20:30:32;;;;;;;9.00;7.40;;;;;;;13.41;60.62;97255.88;6975915;28;20219;-83
2021/11/03 20:33:56;;;;;;;7.27;6.57;;;;;;;13.43;60.56;97270.81;6975403;28;20190;-84